Airfield :
LOGIN :

Register | Disclaimer

   EN    FR    IT 

 










Legend :    VFR   Marginal VFR   IFR   Intensive IFR   Very Intensive IFR
Visi :
Ceiling :
>= 8 km
>= 3000ft
5 to 8 km
1000 to 3000 ft
1500m to 5 km
500 to 1000 ft
800 to 1500m
200 to 500 ft
< 800m
< 200 ft
Symbols :   Thunderstorms  Fog  Heavy snow  Heavy precipitations  Wind > 20 kt
SIGMETs :     Misc.  Thunderstorms  Icing  Turbulence  Mountain Waves  Volcanic Ashes






- Airport Elevation : 408 ft
- IATA code : FKB


EDSB - Karlsruhe Baden Baden

CURRENT METAR :
  • 220050Z AUTO 20013KT 9999 BKN039/// OVC048/// 09/07 Q1007

EXPIRED METARs :
  • 220020Z AUTO 19016KT 9999 BKN044/// BKN050/// OVC061/// 09/07 Q1008
  • 212350Z AUTO 19013KT 9999 OVC059/// 09/07 Q1008
  • 212320Z AUTO 19013KT 9999 OVC061/// 09/06 Q1009
  • 212250Z AUTO 20011KT 9999 OVC064/// 10/05 Q1009
  • 212220Z AUTO 21007KT 9999 FEW053/// OVC067/// 10/04 Q1010
  • 212150Z AUTO 21005KT 9999 BKN064/// OVC073/// 10/04 Q1010
  • 212120Z AUTO 24006KT 210V290 9999 OVC071/// 11/04 Q1011
  • 212050Z 23008KT 200V260 CAVOK 11/04 Q1011
  • 212020Z 20012KT 9999 FEW028 12/03 Q1011

TAF TAF EDSB
Valid from the 22 at 00:00 until the 23 at 00:00 UTC


212300Z 2200/2224 20010KT CAVOK
PROB30
TEMPO 2200/2212 20015G25KT RA
BECMG 2212/2214 20015G25KT
TEMPO 2215/2219 20020G30KT RA
PROB30
TEMPO 2219/2222 20025G40KT SHRA BKN030CB



MET'MAP, your aeronautical weather chart ! - Copyright ORBIFLY December 2007 - Disclaimer

ORBIFLY MET'MAP TEAM :

Programming & Development : Alexandra Zaïnal
Original concept : Baudouin d'Aumeries
Technical & hardware support : Manuel Goepfert
Assistance : Marc-Olivier Méhu




SOURCES & CREDITS :

   NOAA